Time;durP1;ratioP1;P1;durP2;ratioP2;P2;SDS_P1;SDS_P2;PMS_P1;PMS_P2;Temp;Humidity;BMP_temperature;BMP_pressure;BME280_temperature;BME280_humidity;BME280_pressure;Samples;Min_cycle;Max_cycle;Signal;HPM_P1;HPM_P2
2022/01/03 00:00:24;;;;;;;0.70;0.70;;;12.60;99.90;;;;;;5098059;28;20397;-74
2022/01/03 00:02:53;;;;;;;0.40;0.20;;;12.50;99.90;;;;;;5098296;28;20388;-74
2022/01/03 00:05:19;;;;;;;0.40;0.25;;;12.50;99.90;;;;;;5079253;28;20917;-73
2022/01/03 00:07:46;;;;;;;0.40;0.30;;;12.50;99.90;;;;;;5076112;28;20486;-74
2022/01/03 00:10:13;;;;;;;0.40;0.20;;;12.50;99.90;;;;;;5097541;28;20408;-72
2022/01/03 00:12:39;;;;;;;0.40;0.28;;;12.50;99.90;;;;;;5097743;28;21054;-73
2022/01/03 00:15:08;;;;;;;0.40;0.20;;;12.60;99.90;;;;;;5079511;28;21253;-72
2022/01/03 00:17:34;;;;;;;0.40;0.32;;;12.50;99.90;;;;;;5074958;28;20513;-73
2022/01/03 00:20:00;;;;;;;0.40;0.20;;;12.50;99.90;;;;;;5097089;28;21185;-74
2022/01/03 00:22:29;;;;;;;0.40;0.20;;;12.50;99.90;;;;;;5097622;28;20386;-74
2022/01/03 00:25:03;;;;;;;0.40;0.20;;;12.40;99.90;;;;;;5097173;28;20394;-74
2022/01/03 00:27:39;;;;;;;0.40;0.20;;;12.40;99.90;;;;;;5092780;28;20399;-74
2022/01/03 00:30:06;;;;;;;0.40;0.20;;;12.40;99.90;;;;;;5096592;28;20428;-73
2022/01/03 00:32:36;;;;;;;0.40;0.20;;;12.40;99.90;;;;;;5096727;28;20388;-74
2022/01/03 00:35:04;;;;;;;1.00;0.60;;;12.40;99.90;;;;;;5097017;28;20384;-76
2022/01/03 00:37:31;;;;;;;0.40;0.30;;;12.40;99.90;;;;;;5074720;28;20392;-73
2022/01/03 00:39:58;;;;;;;0.60;0.45;;;12.40;99.90;;;;;;5096283;28;20624;-74
2022/01/03 00:42:24;;;;;;;0.40;0.20;;;12.40;99.90;;;;;;5078647;28;20392;-74
2022/01/03 00:44:52;;;;;;;0.47;0.27;;;12.40;99.90;;;;;;5096227;28;20525;-75
2022/01/03 00:47:18;;;;;;;0.40;0.20;;;12.40;99.90;;;;;;5092594;28;20387;-74
2022/01/03 00:49:45;;;;;;;0.40;0.20;;;12.40;99.90;;;;;;5096385;28;20405;-74
2022/01/03 00:52:12;;;;;;;0.40;0.20;;;12.40;99.90;;;;;;5096567;28;20396;-73
2022/01/03 00:54:38;;;;;;;0.40;0.20;;;12.40;99.90;;;;;;5095866;28;20408;-74
2022/01/03 00:57:11;;;;;;;0.40;0.40;;;12.50;99.90;;;;;;5092594;28;20385;-73
2022/01/03 01:00:02;;;;;;;0.40;0.20;;;12.40;99.90;;;;;;5096332;28;20429;-74
2022/01/03 01:02:29;;;;;;;0.40;0.20;;;12.40;99.90;;;;;;5096030;28;20380;-74
2022/01/03 01:04:56;;;;;;;0.40;0.20;;;12.50;99.90;;;;;;5096530;28;20411;-76
2022/01/03 01:07:25;;;;;;;0.40;0.20;;;12.40;99.90;;;;;;5092694;28;20381;-73
2022/01/03 01:09:51;;;;;;;0.40;0.40;;;12.40;99.90;;;;;;5095993;28;20408;-73
2022/01/03 01:12:19;;;;;;;0.40;0.30;;;12.40;99.90;;;;;;5096301;28;20542;-73
2022/01/03 01:14:49;;;;;;;0.40;0.20;;;12.40;99.90;;;;;;5095878;28;20394;-74
2022/01/03 01:17:14;;;;;;;0.40;0.30;;;12.40;99.90;;;;;;5091324;28;20419;-74
2022/01/03 01:19:40;;;;;;;0.40;0.20;;;12.40;99.90;;;;;;5096254;28;20396;-74
2022/01/03 01:22:06;;;;;;;0.40;0.30;;;12.30;99.90;;;;;;5096114;28;20384;-74
2022/01/03 01:24:44;;;;;;;0.40;0.30;;;12.30;99.90;;;;;;5077726;28;20493;-74
2022/01/03 01:29:54;;;;;;;1.60;0.70;;;12.30;99.90;;;;;;5096435;28;20538;-74
2022/01/03 01:32:21;;;;;;;0.40;0.20;;;12.30;99.90;;;;;;5095732;28;20384;-74
2022/01/03 01:34:49;;;;;;;0.40;0.20;;;12.30;99.90;;;;;;5078178;28;21038;-74
2022/01/03 01:37:18;;;;;;;0.40;0.20;;;12.30;99.90;;;;;;5091803;28;20389;-74
2022/01/03 01:39:48;;;;;;;0.40;0.20;;;12.30;99.90;;;;;;5095799;28;20388;-76
2022/01/03 01:42:17;;;;;;;0.40;0.20;;;12.30;99.90;;;;;;5096171;28;20463;-73
2022/01/03 01:44:47;;;;;;;0.40;0.30;;;12.30;99.90;;;;;;5095934;28;20384;-74
2022/01/03 01:47:14;;;;;;;0.40;0.20;;;12.20;99.90;;;;;;5090869;28;20392;-73
2022/01/03 01:49:44;;;;;;;0.40;0.20;;;12.20;99.90;;;;;;5101447;28;20849;-74
2022/01/03 01:52:19;;;;;;;0.40;0.20;;;12.20;99.90;;;;;;5095878;28;20458;-74
2022/01/03 01:54:56;;;;;;;0.40;0.20;;;12.20;99.90;;;;;;5080389;28;20892;-74
2022/01/03 01:57:27;;;;;;;0.40;0.20;;;12.20;99.90;;;;;;5097481;28;20386;-75
2022/01/03 02:00:10;;;;;;;0.40;0.30;;;12.20;99.90;;;;;;5097575;28;20715;-74
2022/01/03 02:02:44;;;;;;;0.40;0.20;;;12.20;99.90;;;;;;5099095;28;20439;-74
2022/01/03 02:05:33;;;;;;;0.40;0.20;;;12.20;99.90;;;;;;5099677;28;20404;-74
2022/01/03 02:08:35;;;;;;;0.40;0.20;;;12.20;99.90;;;;;;5097271;28;20415;-74
2022/01/03 02:11:12;;;;;;;0.40;0.40;;;12.20;99.90;;;;;;5085431;28;20400;-74
2022/01/03 02:13:39;;;;;;;0.40;0.20;;;12.30;99.90;;;;;;5099021;28;20400;-75
2022/01/03 02:16:05;;;;;;;0.40;0.40;;;12.30;99.90;;;;;;5097453;28;20415;-74
2022/01/03 02:18:31;;;;;;;0.40;0.20;;;12.20;99.90;;;;;;5098392;28;20372;-75
2022/01/03 02:20:58;;;;;;;0.40;0.20;;;12.30;99.90;;;;;;5098583;28;20409;-74
2022/01/03 02:23:24;;;;;;;0.40;0.30;;;12.10;99.90;;;;;;5098016;28;20426;-74
2022/01/03 02:25:50;;;;;;;0.40;0.20;;;12.30;99.90;;;;;;5097405;28;20805;-75
2022/01/03 02:28:20;;;;;;;0.70;0.70;;;12.20;99.90;;;;;;5099294;28;20469;-73
2022/01/03 02:30:46;;;;;;;0.60;0.50;;;12.30;99.90;;;;;;5098081;28;20487;-73
2022/01/03 02:33:12;;;;;;;0.40;0.20;;;12.20;99.90;;;;;;5097584;28;20394;-74
2022/01/03 02:35:40;;;;;;;0.40;0.20;;;12.20;99.90;;;;;;5098180;28;20855;-75
2022/01/03 02:38:07;;;;;;;0.40;0.20;;;12.20;99.90;;;;;;5097599;28;20382;-74
2022/01/03 02:40:32;;;;;;;0.40;0.20;;;12.10;99.90;;;;;;5097906;28;20737;-74
2022/01/03 02:42:58;;;;;;;0.40;0.20;;;12.10;99.90;;;;;;5097268;28;20380;-75
2022/01/03 02:45:25;;;;;;;0.40;0.20;;;12.10;99.90;;;;;;5099617;28;20379;-74
2022/01/03 02:47:57;;;;;;;0.40;0.25;;;12.10;99.90;;;;;;5099272;28;20466;-75
2022/01/03 02:50:24;;;;;;;0.40;0.30;;;12.10;99.90;;;;;;5097629;28;20420;-74
2022/01/03 02:52:51;;;;;;;0.40;0.20;;;12.10;99.90;;;;;;5103985;28;20388;-75
2022/01/03 02:55:18;;;;;;;0.70;0.70;;;12.00;99.90;;;;;;5109263;28;20890;-74
2022/01/03 02:57:46;;;;;;;0.40;0.30;;;12.00;99.90;;;;;;5109251;28;20880;-73
2022/01/03 03:00:24;;;;;;;0.40;0.30;;;12.00;99.90;;;;;;5109197;28;20457;-74
2022/01/03 03:02:50;;;;;;;0.40;0.20;;;12.10;99.90;;;;;;5109441;28;20384;-74
2022/01/03 03:05:15;;;;;;;0.40;0.20;;;12.10;99.90;;;;;;5109102;28;20373;-75
2022/01/03 03:07:42;;;;;;;0.60;0.40;;;12.10;99.90;;;;;;5109541;28;20474;-73
2022/01/03 03:10:14;;;;;;;0.50;0.50;;;12.00;99.90;;;;;;5111674;28;20928;-75
2022/01/03 03:12:40;;;;;;;0.40;0.30;;;12.10;99.90;;;;;;5112772;28;20388;-75
2022/01/03 03:15:08;;;;;;;0.40;0.20;;;12.00;99.90;;;;;;5113384;28;20842;-74
2022/01/03 03:17:35;;;;;;;0.40;0.20;;;12.00;99.90;;;;;;5112814;28;20381;-73
2022/01/03 03:20:05;;;;;;;0.40;0.40;;;12.00;99.90;;;;;;5113616;28;20512;-74
2022/01/03 03:22:32;;;;;;;0.40;0.20;;;12.00;99.90;;;;;;5112754;28;20887;-74
2022/01/03 03:25:03;;;;;;;0.40;0.20;;;12.00;99.90;;;;;;5113943;28;20412;-74
2022/01/03 03:27:29;;;;;;;0.40;0.20;;;11.90;99.90;;;;;;5113145;28;20414;-74
2022/01/03 03:29:55;;;;;;;0.40;0.30;;;12.00;99.90;;;;;;5112476;28;20793;-74
2022/01/03 03:32:21;;;;;;;0.40;0.20;;;12.00;99.90;;;;;;5113656;28;20464;-75
2022/01/03 03:34:48;;;;;;;0.40;0.30;;;11.90;99.90;;;;;;5093917;28;20462;-73
2022/01/03 03:37:16;;;;;;;0.40;0.20;;;11.90;99.90;;;;;;5099406;28;20405;-77
2022/01/03 03:39:43;;;;;;;0.40;0.20;;;12.00;99.90;;;;;;5102432;28;20380;-72
2022/01/03 03:42:10;;;;;;;0.40;0.20;;;12.00;99.90;;;;;;5101871;28;20394;-73
2022/01/03 03:44:35;;;;;;;0.40;0.30;;;11.90;99.90;;;;;;5101603;28;20374;-73
2022/01/03 03:47:02;;;;;;;0.40;0.20;;;12.00;99.90;;;;;;5104356;28;20421;-73
2022/01/03 03:49:28;;;;;;;0.40;0.20;;;11.90;99.90;;;;;;5101281;28;20413;-75
2022/01/03 03:51:54;;;;;;;0.40;0.20;;;11.90;99.90;;;;;;5085538;28;20380;-73
2022/01/03 03:54:19;;;;;;;0.40;0.20;;;11.90;99.90;;;;;;5102680;28;20402;-73
2022/01/03 03:56:46;;;;;;;0.40;0.30;;;11.90;99.90;;;;;;5101206;28;20528;-73
2022/01/03 03:59:11;;;;;;;0.40;0.20;;;11.90;99.90;;;;;;5105618;28;20391;-74
2022/01/03 04:01:37;;;;;;;0.50;0.50;;;11.90;99.90;;;;;;5100717;28;20381;-73
2022/01/03 04:04:03;;;;;;;0.40;0.20;;;11.90;99.90;;;;;;5102757;28;20850;-74
2022/01/03 04:06:29;;;;;;;0.40;0.20;;;11.90;99.90;;;;;;5101265;28;20386;-73
2022/01/03 04:08:55;;;;;;;0.40;0.28;;;11.80;99.90;;;;;;5101682;28;20412;-74
2022/01/03 04:11:21;;;;;;;0.40;0.20;;;11.80;99.90;;;;;;5102799;28;20406;-73
2022/01/03 04:13:47;;;;;;;0.40;0.20;;;11.80;99.90;;;;;;5103193;28;20380;-73
2022/01/03 04:16:13;;;;;;;0.40;0.30;;;11.80;99.90;;;;;;5101052;28;20398;-73
2022/01/03 04:18:39;;;;;;;0.40;0.28;;;11.80;99.90;;;;;;5104055;28;20476;-73
2022/01/03 04:21:05;;;;;;;0.40;0.20;;;11.80;99.90;;;;;;5099208;28;20448;-73
2022/01/03 04:23:31;;;;;;;0.40;0.30;;;11.80;99.90;;;;;;5101487;28;20397;-73
2022/01/03 04:25:57;;;;;;;0.40;0.20;;;11.80;99.90;;;;;;5101721;28;20417;-74
2022/01/03 04:28:23;;;;;;;0.40;0.20;;;11.70;99.90;;;;;;5102171;28;20484;-74
2022/01/03 04:30:51;;;;;;;0.40;0.30;;;11.70;99.90;;;;;;5101064;28;20725;-74
2022/01/03 04:33:17;;;;;;;0.40;0.20;;;11.70;99.90;;;;;;5083079;28;20381;-73
2022/01/03 04:35:43;;;;;;;0.50;0.40;;;11.70;99.90;;;;;;5103104;28;20398;-74
2022/01/03 04:38:10;;;;;;;0.40;0.20;;;11.70;99.90;;;;;;5099743;28;20436;-74
2022/01/03 04:40:36;;;;;;;0.40;0.30;;;11.70;99.90;;;;;;5101177;28;20385;-73
2022/01/03 04:43:02;;;;;;;0.40;0.20;;;11.70;99.90;;;;;;5100861;28;20850;-73
2022/01/03 04:45:27;;;;;;;0.40;0.25;;;11.70;99.90;;;;;;5099794;28;20379;-74
2022/01/03 04:47:53;;;;;;;0.40;0.20;;;11.70;99.90;;;;;;5101850;28;20415;-73
2022/01/03 04:50:19;;;;;;;0.40;0.20;;;11.70;99.90;;;;;;5102321;28;20402;-74
2022/01/03 04:52:44;;;;;;;0.40;0.25;;;11.70;99.90;;;;;;5102023;28;20408;-73
2022/01/03 04:55:10;;;;;;;0.40;0.20;;;11.70;99.90;;;;;;5100614;28;20409;-72
2022/01/03 04:57:35;;;;;;;0.40;0.20;;;11.80;99.90;;;;;;5100745;28;20369;-73
2022/01/03 05:00:03;;;;;;;0.40;0.30;;;11.80;99.90;;;;;;5110934;28;20789;-73
2022/01/03 05:02:29;;;;;;;0.40;0.20;;;11.70;99.90;;;;;;5111737;28;20369;-73
2022/01/03 05:04:54;;;;;;;0.40;0.20;;;11.70;99.90;;;;;;5111192;28;20387;-73
2022/01/03 05:07:20;;;;;;;0.40;0.20;;;11.70;99.90;;;;;;5111891;28;20376;-73
2022/01/03 05:09:45;;;;;;;0.40;0.20;;;11.70;99.90;;;;;;5110937;28;20690;-73
2022/01/03 05:12:11;;;;;;;0.40;0.20;;;11.60;99.90;;;;;;5111540;28;20439;-73
2022/01/03 05:14:37;;;;;;;0.40;0.20;;;11.60;99.90;;;;;;5111815;28;20377;-73
2022/01/03 05:17:03;;;;;;;0.40;0.20;;;11.70;99.90;;;;;;5112854;28;20411;-75
2022/01/03 05:19:29;;;;;;;0.40;0.20;;;11.70;99.90;;;;;;5113108;28;20459;-74
2022/01/03 05:21:54;;;;;;;0.40;0.20;;;11.70;99.90;;;;;;5111000;28;20472;-73
2022/01/03 05:24:20;;;;;;;0.40;0.20;;;11.70;99.90;;;;;;5111025;28;20399;-72
2022/01/03 05:26:46;;;;;;;0.40;0.30;;;11.70;99.90;;;;;;5111558;28;20415;-72
2022/01/03 05:29:11;;;;;;;0.80;0.70;;;11.70;99.90;;;;;;5110692;28;20408;-73
2022/01/03 05:31:37;;;;;;;0.40;0.20;;;11.70;99.90;;;;;;5110806;28;20379;-72
2022/01/03 05:34:03;;;;;;;0.40;0.40;;;11.70;99.90;;;;;;5100371;28;20507;-72
2022/01/03 05:36:29;;;;;;;0.40;0.20;;;11.70;99.90;;;;;;5102064;28;20426;-72
2022/01/03 05:38:55;;;;;;;0.40;0.30;;;11.70;99.90;;;;;;5099818;28;20866;-72
2022/01/03 05:41:21;;;;;;;0.40;0.30;;;11.80;99.90;;;;;;5100881;28;20398;-72
2022/01/03 05:43:47;;;;;;;0.40;0.20;;;11.70;99.90;;;;;;5101202;28;20379;-73
2022/01/03 05:46:13;;;;;;;0.40;0.20;;;11.70;99.90;;;;;;5101546;28;20854;-73
2022/01/03 05:48:39;;;;;;;0.40;0.20;;;11.70;99.90;;;;;;5081824;28;20486;-73
2022/01/03 05:51:05;;;;;;;0.40;0.20;;;11.70;99.90;;;;;;5099988;28;20376;-72
2022/01/03 05:53:31;;;;;;;0.40;0.20;;;11.60;99.90;;;;;;5075180;28;20439;-72
2022/01/03 05:56:00;;;;;;;0.40;0.20;;;11.70;99.90;;;;;;5090882;28;20387;-72
2022/01/03 05:58:27;;;;;;;0.40;0.20;;;11.70;99.90;;;;;;5071909;28;20868;-72
2022/01/03 06:00:53;;;;;;;0.40;0.30;;;11.60;99.90;;;;;;5090199;28;20393;-72
2022/01/03 06:03:21;;;;;;;0.40;0.20;;;11.70;99.90;;;;;;5089919;28;20378;-72
2022/01/03 06:08:23;;;;;;;0.40;0.20;;;11.60;99.90;;;;;;5089859;28;20382;-72
2022/01/03 06:10:49;;;;;;;0.40;0.20;;;11.70;99.90;;;;;;5090708;28;20414;-72
2022/01/03 06:13:16;;;;;;;0.70;0.70;;;11.70;99.90;;;;;;5072369;28;20409;-72
2022/01/03 06:15:42;;;;;;;0.40;0.30;;;11.70;99.90;;;;;;5089938;28;20659;-72
2022/01/03 06:18:11;;;;;;;0.40;0.20;;;11.60;99.90;;;;;;5090264;28;20390;-72
2022/01/03 06:20:43;;;;;;;0.40;0.20;;;11.60;99.90;;;;;;5089893;28;20717;-72
2022/01/03 06:23:11;;;;;;;0.40;0.20;;;11.60;99.90;;;;;;5090499;28;20378;-72
2022/01/03 06:25:37;;;;;;;0.40;0.20;;;11.60;99.90;;;;;;5089255;28;20386;-73
2022/01/03 06:28:09;;;;;;;0.50;0.50;;;11.60;99.90;;;;;;5090261;28;20370;-72
2022/01/03 06:30:40;;;;;;;0.40;0.20;;;11.50;99.90;;;;;;5089494;28;20410;-73
2022/01/03 06:33:06;;;;;;;0.40;0.20;;;11.50;99.90;;;;;;5087525;28;20381;-73
2022/01/03 06:35:33;;;;;;;0.40;0.20;;;11.50;99.90;;;;;;5089677;28;20410;-72
2022/01/03 06:38:00;;;;;;;0.40;0.20;;;11.50;99.90;;;;;;5090042;28;20375;-72
2022/01/03 06:40:26;;;;;;;0.40;0.20;;;11.50;99.90;;;;;;5090492;28;20381;-72
2022/01/03 06:42:52;;;;;;;0.40;0.20;;;11.60;99.90;;;;;;5089525;28;20766;-72
2022/01/03 06:45:19;;;;;;;0.40;0.20;;;11.50;99.90;;;;;;5110654;28;20390;-73
2022/01/03 06:47:45;;;;;;;0.40;0.20;;;11.60;99.90;;;;;;5113603;28;20465;-72
2022/01/03 06:50:11;;;;;;;0.40;0.28;;;11.50;99.90;;;;;;5114294;28;20412;-72
2022/01/03 06:52:37;;;;;;;0.50;0.50;;;11.50;99.90;;;;;;5114458;28;20369;-72
2022/01/03 06:55:04;;;;;;;0.40;0.20;;;11.50;99.90;;;;;;5113493;28;20384;-72
2022/01/03 06:57:30;;;;;;;0.40;0.30;;;11.50;99.90;;;;;;5114407;28;20404;-74
2022/01/03 06:59:56;;;;;;;0.40;0.20;;;11.60;99.90;;;;;;5113777;28;20385;-73
2022/01/03 07:02:22;;;;;;;0.40;0.20;;;11.50;99.90;;;;;;5114220;28;20433;-73
2022/01/03 07:04:48;;;;;;;0.40;0.30;;;11.60;99.90;;;;;;5114599;28;20380;-72
2022/01/03 07:07:14;;;;;;;0.40;0.20;;;11.50;99.90;;;;;;5113119;28;20433;-72
2022/01/03 07:09:40;;;;;;;0.40;0.20;;;11.50;99.90;;;;;;5113399;28;20404;-72
2022/01/03 07:12:06;;;;;;;0.40;0.20;;;11.60;99.90;;;;;;5113084;28;20877;-73
2022/01/03 07:19:51;;;;;;;0.40;0.30;;;11.50;99.90;;;;;;5114055;28;20907;-74
2022/01/03 07:22:17;;;;;;;0.40;0.28;;;11.50;99.90;;;;;;5094892;28;20493;-73
2022/01/03 07:24:43;;;;;;;0.40;0.20;;;11.60;99.90;;;;;;5113210;28;20404;-73
2022/01/03 07:27:11;;;;;;;0.40;0.20;;;11.50;99.90;;;;;;5113110;28;20460;-73
2022/01/03 07:29:38;;;;;;;0.40;0.30;;;11.60;99.90;;;;;;5113481;28;20412;-73
2022/01/03 07:32:04;;;;;;;0.40;0.20;;;11.50;99.90;;;;;;5113748;28;20373;-72
2022/01/03 07:34:30;;;;;;;0.40;0.20;;;11.50;99.90;;;;;;5112570;28;21010;-73
2022/01/03 07:36:55;;;;;;;0.40;0.20;;;11.60;99.90;;;;;;5113700;28;20407;-73
2022/01/03 07:39:21;;;;;;;0.40;0.25;;;11.60;99.90;;;;;;5112839;28;20404;-73
2022/01/03 07:41:47;;;;;;;0.40;0.20;;;11.60;99.90;;;;;;5113661;28;20376;-73
2022/01/03 07:44:14;;;;;;;0.47;0.43;;;11.60;99.90;;;;;;5103684;28;20379;-72
2022/01/03 07:46:40;;;;;;;2.50;0.32;;;11.60;99.90;;;;;;5092488;28;20439;-73
2022/01/03 07:49:06;;;;;;;0.40;0.20;;;11.60;99.90;;;;;;5092554;28;20412;-73
2022/01/03 07:51:31;;;;;;;0.40;0.20;;;11.60;99.90;;;;;;5092045;28;20370;-73
2022/01/03 07:53:57;;;;;;;0.40;0.20;;;11.60;99.90;;;;;;5092706;28;20381;-73
2022/01/03 07:56:23;;;;;;;0.40;0.20;;;11.50;99.90;;;;;;5090841;28;20378;-73
2022/01/03 07:58:49;;;;;;;0.40;0.20;;;11.60;99.90;;;;;;5092938;28;20736;-73
2022/01/03 08:01:15;;;;;;;0.40;0.30;;;11.50;99.90;;;;;;5093081;28;20382;-74
2022/01/03 08:03:41;;;;;;;0.40;0.20;;;11.60;99.90;;;;;;5091444;28;20390;-73
2022/01/03 08:06:08;;;;;;;0.40;0.20;;;11.60;99.90;;;;;;5092756;28;20373;-72
2022/01/03 08:08:35;;;;;;;0.40;0.20;;;11.60;99.90;;;;;;5073491;28;20386;-73
2022/01/03 08:11:01;;;;;;;0.40;0.20;;;11.70;99.90;;;;;;5073886;28;20390;-73
2022/01/03 08:13:27;;;;;;;0.40;0.30;;;11.70;99.90;;;;;;5092740;28;20689;-73
2022/01/03 08:15:52;;;;;;;0.40;0.20;;;11.70;99.90;;;;;;5092063;28;20457;-73
2022/01/03 08:18:18;;;;;;;0.40;0.30;;;11.70;99.90;;;;;;5092495;28;20376;-73
2022/01/03 08:20:44;;;;;;;0.40;0.20;;;11.70;99.90;;;;;;5091347;28;20406;-73
2022/01/03 08:23:10;;;;;;;0.40;0.20;;;11.60;99.90;;;;;;5074108;28;20495;-73
2022/01/03 08:25:38;;;;;;;0.40;0.20;;;11.70;99.90;;;;;;5092214;28;20378;-73
2022/01/03 08:28:08;;;;;;;0.40;0.30;;;11.70;99.90;;;;;;5091317;28;20451;-72
2022/01/03 08:30:35;;;;;;;0.40;0.20;;;11.70;99.90;;;;;;5091726;28;20892;-72
2022/01/03 08:33:01;;;;;;;0.40;0.30;;;11.60;99.90;;;;;;5099491;27;20825;-73
2022/01/03 08:35:27;;;;;;;0.40;0.20;;;11.70;99.90;;;;;;5099926;27;20392;-75
2022/01/03 08:37:53;;;;;;;0.40;0.20;;;11.70;99.90;;;;;;5113008;27;20442;-71
2022/01/03 08:40:19;;;;;;;0.63;0.53;;;11.70;99.90;;;;;;5111259;27;20392;-72
2022/01/03 08:42:45;;;;;;;0.40;0.20;;;11.70;99.90;;;;;;5108876;27;20403;-71
2022/01/03 08:45:11;;;;;;;0.40;0.20;;;11.70;99.90;;;;;;5089041;28;20479;-72
2022/01/03 08:47:37;;;;;;;0.40;0.20;;;11.70;99.90;;;;;;5106994;28;20397;-73
2022/01/03 08:50:04;;;;;;;0.40;0.20;;;11.70;99.90;;;;;;5104861;28;20409;-72
2022/01/03 08:52:30;;;;;;;0.40;0.20;;;11.70;99.90;;;;;;5109920;28;20872;-74
2022/01/03 08:54:56;;;;;;;0.40;0.20;;;11.70;99.90;;;;;;5106038;28;20392;-73
2022/01/03 08:57:22;;;;;;;0.40;0.20;;;11.70;99.90;;;;;;5104827;28;20409;-74
2022/01/03 08:59:49;;;;;;;0.40;0.30;;;11.80;99.90;;;;;;5106865;28;20393;-72
2022/01/03 09:02:16;;;;;;;0.40;0.20;;;11.80;99.90;;;;;;5107770;28;20755;-72
2022/01/03 09:04:42;;;;;;;0.40;0.20;;;11.80;99.90;;;;;;5106123;28;20388;-71
2022/01/03 09:07:08;;;;;;;0.40;0.20;;;11.80;99.90;;;;;;5093788;28;20475;-73
2022/01/03 09:09:34;;;;;;;0.40;0.20;;;11.80;99.90;;;;;;5098657;28;21473;-73
2022/01/03 09:12:01;;;;;;;0.40;0.20;;;11.80;99.90;;;;;;5097518;28;20453;-73
2022/01/03 09:14:27;;;;;;;0.40;0.20;;;11.80;99.90;;;;;;5095918;28;20537;-73
2022/01/03 09:16:53;;;;;;;0.40;0.20;;;11.90;99.90;;;;;;5076248;28;20772;-73
2022/01/03 09:19:19;;;;;;;0.40;0.20;;;11.80;99.90;;;;;;5096154;28;20388;-73
2022/01/03 09:21:45;;;;;;;0.40;0.30;;;11.80;99.90;;;;;;5097402;28;21162;-72
2022/01/03 09:29:27;;;;;;;0.40;0.30;;;11.80;99.90;;;;;;5096062;28;20431;-75
2022/01/03 09:31:54;;;;;;;0.40;0.20;;;11.80;99.90;;;;;;5096667;28;20384;-73
2022/01/03 09:34:19;;;;;;;0.40;0.20;;;11.80;99.90;;;;;;5095430;28;21155;-73
2022/01/03 09:36:45;;;;;;;0.40;0.20;;;11.90;99.90;;;;;;5094614;28;20479;-74
2022/01/03 09:39:11;;;;;;;0.40;0.30;;;11.90;99.90;;;;;;5096573;28;20381;-73
2022/01/03 09:41:47;;;;;;;0.60;0.60;;;11.90;99.90;;;;;;5077546;28;20469;-73
2022/01/03 09:44:13;;;;;;;0.40;0.20;;;11.90;99.90;;;;;;5095016;28;20519;-74
2022/01/03 09:46:42;;;;;;;0.40;0.30;;;11.90;99.90;;;;;;5074722;28;20894;-74
2022/01/03 09:49:10;;;;;;;0.40;0.20;;;11.90;99.90;;;;;;5096988;28;20808;-73
2022/01/03 09:51:37;;;;;;;0.60;0.60;;;11.90;99.90;;;;;;5096031;28;20973;-74
2022/01/03 09:54:10;;;;;;;0.40;0.20;;;12.00;99.90;;;;;;5097382;28;20830;-73
2022/01/03 09:56:38;;;;;;;0.40;0.30;;;11.90;99.90;;;;;;5093884;28;20395;-74
2022/01/03 09:59:05;;;;;;;0.40;0.20;;;11.90;99.90;;;;;;5096827;28;20384;-73
2022/01/03 10:01:33;;;;;;;0.40;0.20;;;11.90;99.90;;;;;;5096572;28;20517;-73
2022/01/03 10:03:59;;;;;;;0.40;0.20;;;11.90;99.90;;;;;;5096052;28;20384;-73
2022/01/03 10:06:25;;;;;;;0.40;0.40;;;12.00;99.90;;;;;;5094916;28;20449;-73
2022/01/03 10:08:51;;;;;;;0.40;0.20;;;12.00;99.90;;;;;;5096152;28;20949;-74
2022/01/03 10:11:19;;;;;;;0.40;0.30;;;11.90;99.90;;;;;;5097570;28;20411;-73
2022/01/03 10:13:45;;;;;;;0.40;0.30;;;12.00;99.90;;;;;;5096301;28;20372;-74
2022/01/03 10:16:12;;;;;;;0.40;0.20;;;11.90;99.90;;;;;;5094584;28;20388;-74
2022/01/03 10:18:38;;;;;;;0.40;0.20;;;12.00;99.90;;;;;;5080706;28;20373;-73
2022/01/03 10:21:06;;;;;;;0.40;0.40;;;12.00;99.90;;;;;;5113308;28;21024;-74
2022/01/03 10:23:32;;;;;;;0.40;0.30;;;12.00;99.90;;;;;;5115376;28;20395;-73
2022/01/03 10:26:19;;;;;;;0.40;0.30;;;12.00;99.90;;;;;;5114066;28;20368;-76
2022/01/03 10:28:45;;;;;;;0.40;0.30;;;12.00;99.90;;;;;;5114410;28;20414;-74
2022/01/03 10:31:19;;;;;;;0.40;0.20;;;12.00;99.90;;;;;;5114379;28;20392;-74
2022/01/03 10:33:45;;;;;;;0.40;0.20;;;12.00;99.90;;;;;;5112420;28;20885;-73
2022/01/03 10:36:29;;;;;;;0.40;0.30;;;12.00;99.90;;;;;;5114230;28;20666;-73
2022/01/03 10:38:55;;;;;;;0.40;0.28;;;12.10;99.90;;;;;;5107611;28;20378;-74
2022/01/03 10:41:24;;;;;;;0.40;0.20;;;12.10;99.90;;;;;;5094214;28;20378;-73
2022/01/03 10:43:53;;;;;;;0.40;0.20;;;12.10;99.90;;;;;;5100517;28;20416;-74
2022/01/03 10:46:26;;;;;;;0.40;0.20;;;12.20;99.90;;;;;;5114820;28;20381;-74
2022/01/03 10:48:57;;;;;;;0.40;0.30;;;12.20;99.90;;;;;;5114724;28;20404;-74
2022/01/03 10:51:26;;;;;;;0.40;0.20;;;12.20;99.90;;;;;;5091331;27;20906;-74
2022/01/03 10:53:54;;;;;;;0.40;0.20;;;12.20;99.90;;;;;;5110683;27;20476;-73
2022/01/03 10:56:41;;;;;;;0.40;0.20;;;12.20;99.90;;;;;;5093422;28;20747;-73
2022/01/03 10:59:14;;;;;;;0.40;0.20;;;12.10;99.90;;;;;;5093418;28;20457;-74
2022/01/03 11:01:41;;;;;;;0.40;0.20;;;12.00;99.90;;;;;;5094109;28;20397;-74
2022/01/03 11:04:07;;;;;;;0.40;0.20;;;12.10;99.90;;;;;;5095597;28;20382;-74
2022/01/03 11:11:51;;;;;;;0.40;0.30;;;12.10;99.90;;;;;;5064878;28;20754;-73
2022/01/03 11:14:33;;;;;;;0.40;0.38;;;12.00;99.90;;;;;;5098130;28;20748;-74
2022/01/03 11:17:02;;;;;;;0.40;0.30;;;12.10;99.90;;;;;;5102042;28;20449;-73
2022/01/03 11:19:42;;;;;;;0.40;0.20;;;12.10;99.90;;;;;;5101204;28;20389;-73
2022/01/03 11:22:08;;;;;;;0.40;0.30;;;12.10;99.90;;;;;;5103556;28;20404;-73
2022/01/03 11:24:47;;;;;;;0.40;0.20;;;12.20;99.90;;;;;;5103556;28;20482;-73
2022/01/03 11:27:14;;;;;;;0.40;0.30;;;12.20;99.90;;;;;;5120472;27;20391;-73
2022/01/03 11:29:42;;;;;;;0.40;0.20;;;12.20;99.90;;;;;;5118404;27;20425;-73
2022/01/03 11:32:08;;;;;;;0.40;0.20;;;12.20;99.90;;;;;;5086879;27;20450;-72
2022/01/03 11:34:34;;;;;;;0.40;0.20;;;12.10;99.90;;;;;;5109581;27;20387;-73
2022/01/03 11:37:03;;;;;;;0.40;0.30;;;12.20;99.90;;;;;;5105851;28;20365;-73
2022/01/03 11:39:32;;;;;;;0.40;0.20;;;12.20;99.90;;;;;;5099436;28;20377;-74
2022/01/03 11:41:58;;;;;;;0.40;0.20;;;12.20;99.90;;;;;;5101088;28;20941;-73
2022/01/03 11:44:25;;;;;;;0.40;0.20;;;12.10;99.90;;;;;;5108578;28;20389;-74
2022/01/03 11:46:51;;;;;;;0.40;0.20;;;12.20;99.90;;;;;;5093785;28;20541;-75
2022/01/03 11:49:19;;;;;;;0.40;0.20;;;12.10;99.90;;;;;;5114677;27;20489;-74
2022/01/03 11:51:46;;;;;;;0.40;0.20;;;12.20;99.90;;;;;;5095151;28;20372;-74
2022/01/03 11:54:14;;;;;;;0.40;0.20;;;12.20;99.90;;;;;;5094249;28;20742;-72
2022/01/03 11:56:47;;;;;;;0.40;0.20;;;12.20;99.90;;;;;;5112418;28;20372;-74
2022/01/03 12:04:31;;;;;;;1.10;0.50;;;12.20;99.90;;;;;;5113328;28;20465;-76
2022/01/03 12:07:09;;;;;;;0.40;0.20;;;12.30;99.90;;;;;;5094398;28;20380;-73
2022/01/03 12:09:37;;;;;;;0.40;0.30;;;12.30;99.90;;;;;;5112861;28;20408;-73
2022/01/03 12:12:05;;;;;;;0.50;0.40;;;12.30;99.90;;;;;;5094505;28;20931;-73
2022/01/03 12:14:43;;;;;;;0.40;0.20;;;12.30;99.90;;;;;;5113076;28;20387;-73
2022/01/03 12:17:10;;;;;;;0.40;0.20;;;12.30;99.90;;;;;;5112643;28;20408;-73
2022/01/03 12:19:42;;;;;;;0.40;0.20;;;12.30;99.90;;;;;;5112462;28;20858;-73
2022/01/03 12:22:15;;;;;;;0.40;0.20;;;12.30;99.90;;;;;;5112491;28;20438;-73
2022/01/03 12:24:44;;;;;;;0.40;0.30;;;12.30;99.90;;;;;;5094377;28;20404;-73
2022/01/03 12:27:12;;;;;;;0.40;0.30;;;12.30;99.90;;;;;;5112524;28;20459;-73
2022/01/03 12:30:01;;;;;;;1.10;1.00;;;12.30;99.90;;;;;;5112403;28;20412;-73
2022/01/03 12:32:36;;;;;;;0.40;0.30;;;12.40;99.90;;;;;;5098971;28;20465;-73
2022/01/03 12:35:16;;;;;;;0.40;0.25;;;12.40;99.90;;;;;;5093490;28;20751;-73
2022/01/03 12:37:49;;;;;;;0.40;0.20;;;12.50;99.90;;;;;;5112400;28;20906;-73
2022/01/03 12:40:21;;;;;;;0.40;0.30;;;12.50;99.90;;;;;;5112271;28;20907;-74
2022/01/03 12:42:51;;;;;;;0.50;0.50;;;12.50;99.90;;;;;;5111809;28;20368;-73
2022/01/03 12:45:29;;;;;;;0.40;0.20;;;12.40;99.90;;;;;;5093193;28;21024;-74
2022/01/03 12:48:10;;;;;;;0.40;0.30;;;12.40;99.90;;;;;;5093540;28;20401;-73
2022/01/03 12:50:54;;;;;;;0.40;0.20;;;12.50;99.90;;;;;;5112045;28;20503;-72
2022/01/03 12:53:31;;;;;;;0.40;0.20;;;12.50;99.90;;;;;;5111251;28;20883;-74
2022/01/03 12:56:07;;;;;;;0.40;0.30;;;12.50;99.90;;;;;;5112005;28;20380;-74
2022/01/03 12:58:32;;;;;;;0.40;0.20;;;12.50;99.90;;;;;;5111929;28;20387;-74
2022/01/03 13:01:11;;;;;;;0.80;0.80;;;12.50;99.90;;;;;;5093694;28;20384;-73
2022/01/03 13:03:39;;;;;;;0.40;0.20;;;12.40;99.90;;;;;;5112093;28;20388;-73
2022/01/03 13:06:33;;;;;;;0.40;0.30;;;12.40;99.90;;;;;;5093332;28;20445;-72
2022/01/03 13:09:08;;;;;;;0.40;0.20;;;12.50;99.90;;;;;;5093599;28;20495;-71
2022/01/03 13:11:43;;;;;;;0.40;0.30;;;12.40;99.90;;;;;;5111213;28;20368;-74
2022/01/03 13:14:15;;;;;;;0.40;0.20;;;12.40;99.90;;;;;;5111982;28;20388;-71
2022/01/03 13:16:55;;;;;;;0.40;0.25;;;12.40;99.90;;;;;;5111747;28;20423;-72
2022/01/03 13:19:22;;;;;;;0.40;0.20;;;12.50;99.90;;;;;;5111292;28;20388;-73